Time;durP1;ratioP1;P1;durP2;ratioP2;P2;SDS_P1;SDS_P2;PMS_P1;PMS_P2;Temp;Humidity;BMP_temperature;BMP_pressure;BME280_temperature;BME280_humidity;BME280_pressure;Samples;Min_cycle;Max_cycle;Signal;HPM_P1;HPM_P2
2021/08/25 00:01:18;;;;;;;1.70;0.98;;;21.20;83.60;;;;;;5057751;28;20043;-69
2021/08/25 00:04:22;;;;;;;2.80;1.15;;;21.10;83.20;;;;;;5070810;28;20051;-69
2021/08/25 00:07:27;;;;;;;4.05;1.80;;;21.10;83.40;;;;;;5071865;28;20395;-69
2021/08/25 00:10:31;;;;;;;4.90;1.35;;;20.90;84.50;;;;;;5069769;28;20398;-71
2021/08/25 00:13:35;;;;;;;3.13;1.30;;;20.90;84.80;;;;;;5051485;28;20045;-71
2021/08/25 00:16:41;;;;;;;1.88;1.20;;;20.80;84.50;;;;;;5051357;28;20040;-71
2021/08/25 00:19:46;;;;;;;1.70;1.17;;;20.70;84.90;;;;;;5058861;28;20040;-70
2021/08/25 00:22:50;;;;;;;1.45;0.88;;;20.60;85.20;;;;;;5070984;28;20047;-71
2021/08/25 00:25:56;;;;;;;1.33;1.00;;;20.60;85.50;;;;;;5071551;28;20037;-71
2021/08/25 00:28:59;;;;;;;2.22;0.98;;;20.50;85.60;;;;;;5071167;28;20394;-70
2021/08/25 00:32:04;;;;;;;2.28;1.00;;;20.60;85.60;;;;;;5070804;28;20037;-70
2021/08/25 00:35:09;;;;;;;3.85;1.27;;;20.60;85.60;;;;;;5071052;28;20179;-71
2021/08/25 00:38:13;;;;;;;1.95;1.25;;;20.50;85.70;;;;;;5059466;28;20055;-69
2021/08/25 00:41:17;;;;;;;3.80;1.00;;;20.50;85.60;;;;;;5068399;28;20123;-70
2021/08/25 00:44:21;;;;;;;2.28;1.10;;;20.50;85.60;;;;;;5054108;28;20037;-71
2021/08/25 00:47:25;;;;;;;1.30;0.82;;;20.40;86.00;;;;;;5045221;28;20134;-71
2021/08/25 00:50:29;;;;;;;3.38;1.17;;;20.30;86.00;;;;;;5070967;28;20036;-70
2021/08/25 00:53:33;;;;;;;2.10;1.00;;;20.30;86.50;;;;;;5070925;28;20055;-69
2021/08/25 00:56:37;;;;;;;2.85;1.20;;;20.30;86.60;;;;;;5059265;28;20052;-71
2021/08/25 00:59:41;;;;;;;3.38;1.25;;;20.30;86.50;;;;;;5051014;28;20045;-69
2021/08/25 01:03:01;;;;;;;1.85;1.20;;;20.30;86.50;;;;;;5050611;28;20491;-71
2021/08/25 01:06:06;;;;;;;1.30;1.00;;;20.20;87.30;;;;;;5050150;28;20502;-70
2021/08/25 01:09:10;;;;;;;5.20;1.60;;;20.10;87.70;;;;;;5050849;28;20052;-70
2021/08/25 01:12:14;;;;;;;1.88;1.02;;;20.10;87.70;;;;;;5050621;28;20522;-70
2021/08/25 01:15:18;;;;;;;2.78;1.15;;;20.10;87.50;;;;;;5050910;28;20037;-70
2021/08/25 01:18:23;;;;;;;2.97;1.10;;;20.10;87.70;;;;;;5050527;28;20510;-70
2021/08/25 01:21:28;;;;;;;8.18;1.77;;;20.10;87.60;;;;;;5050380;28;20048;-70
2021/08/25 01:24:32;;;;;;;4.85;1.33;;;20.10;88.20;;;;;;5050637;28;20036;-70
2021/08/25 01:27:49;;;;;;;2.42;1.30;;;20.00;88.00;;;;;;5050474;28;20049;-70
2021/08/25 01:30:53;;;;;;;2.45;1.10;;;20.00;88.30;;;;;;5050266;28;20049;-71
2021/08/25 01:34:05;;;;;;;2.63;1.20;;;19.90;88.60;;;;;;5050364;28;20048;-70
2021/08/25 01:37:09;;;;;;;2.17;0.80;;;19.90;88.90;;;;;;5050513;28;20036;-70
2021/08/25 01:40:13;;;;;;;4.85;1.35;;;19.90;90.00;;;;;;5050541;28;20055;-70
2021/08/25 01:43:18;;;;;;;4.07;1.10;;;19.90;89.80;;;;;;5050781;28;20037;-71
2021/08/25 01:46:28;;;;;;;1.83;0.98;;;19.90;90.30;;;;;;5050221;28;20494;-70
2021/08/25 01:49:32;;;;;;;2.60;1.10;;;19.90;90.30;;;;;;5050485;28;20037;-70
2021/08/25 01:52:36;;;;;;;1.50;1.13;;;19.80;90.20;;;;;;5050194;28;20040;-70
2021/08/25 01:55:40;;;;;;;4.60;1.20;;;19.70;90.50;;;;;;5050515;28;20033;-70
2021/08/25 01:58:44;;;;;;;2.50;1.42;;;19.60;90.60;;;;;;5050291;28;20037;-70
2021/08/25 02:01:48;;;;;;;2.63;1.40;;;19.60;90.80;;;;;;5050012;28;20037;-70
2021/08/25 02:04:52;;;;;;;2.72;1.00;;;19.60;91.10;;;;;;5049300;28;20037;-70
2021/08/25 02:07:56;;;;;;;2.28;0.90;;;19.50;91.30;;;;;;5049971;28;20041;-70
2021/08/25 02:11:00;;;;;;;1.73;1.10;;;19.50;91.40;;;;;;5049639;28;20045;-70
2021/08/25 02:14:04;;;;;;;7.82;1.20;;;19.40;91.60;;;;;;5049878;28;20068;-70
2021/08/25 02:17:09;;;;;;;1.73;1.10;;;19.30;91.60;;;;;;5050144;28;20592;-70
2021/08/25 02:20:13;;;;;;;1.65;1.08;;;19.30;92.00;;;;;;5049773;28;20045;-70
2021/08/25 02:23:17;;;;;;;1.80;1.15;;;19.20;92.20;;;;;;5049647;28;20056;-70
2021/08/25 02:26:21;;;;;;;1.90;1.02;;;19.10;92.70;;;;;;5049831;28;20048;-70
2021/08/25 02:29:25;;;;;;;2.53;1.00;;;19.10;92.70;;;;;;5049651;28;20037;-70
2021/08/25 02:32:29;;;;;;;1.60;1.10;;;19.10;93.20;;;;;;5049768;28;20487;-70
2021/08/25 02:35:33;;;;;;;1.67;1.15;;;19.00;93.70;;;;;;5050231;28;20037;-70
2021/08/25 02:38:38;;;;;;;3.80;1.17;;;18.90;93.80;;;;;;5052713;28;20045;-70
2021/08/25 02:41:43;;;;;;;1.92;0.88;;;18.90;93.80;;;;;;5053605;28;20275;-71
2021/08/25 02:44:47;;;;;;;1.52;1.10;;;19.00;94.00;;;;;;5053412;28;20033;-70
2021/08/25 02:47:51;;;;;;;3.80;1.30;;;18.90;94.00;;;;;;5066124;28;20048;-70
2021/08/25 02:50:55;;;;;;;2.50;0.90;;;18.80;94.30;;;;;;5073585;28;20055;-70
2021/08/25 02:53:59;;;;;;;3.53;1.33;;;18.80;94.60;;;;;;5073712;28;20048;-70
2021/08/25 02:57:04;;;;;;;3.80;0.90;;;18.70;95.00;;;;;;5073321;28;20063;-70
2021/08/25 03:00:11;;;;;;;2.58;1.30;;;18.70;95.00;;;;;;5072566;28;20032;-70
2021/08/25 03:03:15;;;;;;;1.92;0.82;;;18.70;95.10;;;;;;5072209;28;20486;-70
2021/08/25 03:06:19;;;;;;;2.45;1.00;;;18.80;94.90;;;;;;5060814;28;20039;-70
2021/08/25 03:09:23;;;;;;;1.27;1.08;;;18.80;94.90;;;;;;5072890;28;20047;-70
2021/08/25 03:12:27;;;;;;;2.40;1.10;;;18.70;95.20;;;;;;5072793;28;20041;-70
2021/08/25 03:15:31;;;;;;;3.85;1.30;;;18.60;95.40;;;;;;5072879;28;20147;-70
2021/08/25 03:18:36;;;;;;;2.28;1.10;;;18.60;96.30;;;;;;5072553;28;20044;-70
2021/08/25 03:21:41;;;;;;;1.20;0.93;;;18.50;96.30;;;;;;5072601;28;20043;-70
2021/08/25 03:24:45;;;;;;;1.98;1.20;;;18.40;96.60;;;;;;5072774;28;20041;-70
2021/08/25 03:27:49;;;;;;;2.42;1.02;;;18.50;97.40;;;;;;5072751;28;20040;-70
2021/08/25 03:30:57;;;;;;;1.25;0.93;;;18.60;97.20;;;;;;5072032;28;20495;-71
2021/08/25 03:34:01;;;;;;;5.95;1.15;;;18.70;97.30;;;;;;5072654;28;20051;-70
2021/08/25 03:37:05;;;;;;;2.08;1.15;;;18.50;97.40;;;;;;5072417;28;20490;-70
2021/08/25 03:40:10;;;;;;;3.92;1.05;;;18.50;97.60;;;;;;5072355;28;20064;-70
2021/08/25 03:43:14;;;;;;;2.53;1.20;;;18.50;97.90;;;;;;5072646;28;20053;-70
2021/08/25 03:46:18;;;;;;;2.92;1.10;;;18.60;98.00;;;;;;5072358;28;20036;-70
2021/08/25 03:49:22;;;;;;;2.10;1.10;;;18.60;98.00;;;;;;5071769;28;20040;-70
2021/08/25 03:52:26;;;;;;;2.92;1.35;;;18.50;98.10;;;;;;5071867;28;20040;-70
2021/08/25 03:55:30;;;;;;;1.40;0.85;;;18.50;98.90;;;;;;5072393;28;20402;-70
2021/08/25 03:58:34;;;;;;;2.45;1.38;;;18.40;98.50;;;;;;5071940;28;20044;-70
2021/08/25 04:01:39;;;;;;;3.88;1.33;;;18.40;99.00;;;;;;5071503;28;20036;-71
2021/08/25 04:04:44;;;;;;;3.63;1.02;;;18.30;99.30;;;;;;5059959;28;20037;-70
2021/08/25 04:07:48;;;;;;;2.80;1.10;;;18.30;99.40;;;;;;5072109;28;20380;-70
2021/08/25 04:10:51;;;;;;;3.70;1.30;;;18.20;99.70;;;;;;5071765;28;20052;-70
2021/08/25 04:13:55;;;;;;;2.65;1.30;;;18.10;99.90;;;;;;5072102;28;20041;-70
2021/08/25 04:16:59;;;;;;;2.08;1.30;;;18.10;99.90;;;;;;5071471;28;20037;-70
2021/08/25 04:20:04;;;;;;;2.97;1.23;;;18.00;99.90;;;;;;5072301;28;20383;-70
2021/08/25 04:23:09;;;;;;;6.47;1.52;;;18.00;99.90;;;;;;5071496;28;20394;-70
2021/08/25 04:26:12;;;;;;;1.90;1.17;;;18.00;99.90;;;;;;5071625;28;20043;-70
2021/08/25 04:29:17;;;;;;;2.95;1.25;;;17.80;99.90;;;;;;5059392;28;20040;-70
2021/08/25 04:32:21;;;;;;;6.93;1.27;;;17.80;99.90;;;;;;5070555;28;20044;-70
2021/08/25 04:35:25;;;;;;;1.95;1.15;;;17.90;99.90;;;;;;5071947;28;20041;-70
2021/08/25 04:38:30;;;;;;;1.60;1.30;;;18.00;99.90;;;;;;5071545;28;20513;-70
2021/08/25 04:41:34;;;;;;;4.25;1.27;;;18.40;99.90;;;;;;5071617;28;20041;-70
2021/08/25 04:44:38;;;;;;;1.65;1.20;;;18.70;99.90;;;;;;5071040;28;20048;-70
2021/08/25 04:47:42;;;;;;;2.20;1.58;;;19.30;99.80;;;;;;5060721;28;20048;-71
2021/08/25 04:50:46;;;;;;;3.80;1.77;;;19.70;99.20;;;;;;5051453;28;20048;-70
2021/08/25 04:53:50;;;;;;;2.15;1.10;;;20.00;98.90;;;;;;5051390;28;20050;-70
2021/08/25 04:56:55;;;;;;;2.67;1.52;;;20.20;98.30;;;;;;5050891;28;20498;-70
2021/08/25 04:59:59;;;;;;;3.13;1.50;;;20.40;98.60;;;;;;5050205;28;20040;-70
2021/08/25 05:03:03;;;;;;;2.63;1.67;;;20.60;98.70;;;;;;5050693;28;20342;-71
2021/08/25 05:06:08;;;;;;;2.58;1.27;;;20.70;98.50;;;;;;5051255;28;20509;-71
2021/08/25 05:09:12;;;;;;;2.50;1.25;;;20.70;97.40;;;;;;5050830;28;20045;-70
2021/08/25 05:12:18;;;;;;;3.47;1.45;;;20.10;97.80;;;;;;5050498;28;20045;-70
2021/08/25 05:15:22;;;;;;;3.67;1.80;;;19.60;98.70;;;;;;5051021;28;20041;-70
2021/08/25 05:18:27;;;;;;;11.43;2.63;;;19.60;98.90;;;;;;5050458;28;20032;-70
2021/08/25 05:21:32;;;;;;;6.30;2.50;;;19.60;99.30;;;;;;5050507;28;20044;-70
2021/08/25 05:24:36;;;;;;;2.40;1.25;;;19.90;99.20;;;;;;5050691;28;20490;-70
2021/08/25 05:27:40;;;;;;;4.25;1.92;;;21.30;96.90;;;;;;5050776;28;20048;-71
2021/08/25 05:30:44;;;;;;;2.88;1.38;;;22.40;95.60;;;;;;5055589;28;20040;-70
2021/08/25 05:33:49;;;;;;;3.33;1.35;;;23.60;93.90;;;;;;5066988;28;20029;-70
2021/08/25 05:36:53;;;;;;;1.88;1.20;;;24.60;92.30;;;;;;5053160;28;20045;-70
2021/08/25 05:39:57;;;;;;;3.30;1.73;;;24.70;91.90;;;;;;5050260;28;20398;-70
2021/08/25 05:43:01;;;;;;;4.20;1.15;;;25.60;90.60;;;;;;5049841;28;20060;-70
2021/08/25 05:46:05;;;;;;;4.60;1.10;;;25.80;89.60;;;;;;5055722;28;20033;-70
2021/08/25 05:49:09;;;;;;;3.40;1.10;;;25.20;88.40;;;;;;5063749;28;20040;-70
2021/08/25 05:52:13;;;;;;;4.00;1.13;;;26.40;88.00;;;;;;5049583;28;20041;-70
2021/08/25 05:55:17;;;;;;;1.83;1.20;;;25.10;89.20;;;;;;5049287;28;20051;-70
2021/08/25 05:58:21;;;;;;;1.67;0.90;;;25.90;88.20;;;;;;5050119;28;20044;-71
2021/08/25 06:01:25;;;;;;;3.25;1.10;;;27.10;85.70;;;;;;5057158;28;20033;-70
2021/08/25 06:04:29;;;;;;;4.35;1.13;;;27.60;84.50;;;;;;5070194;28;20040;-70
2021/08/25 06:07:33;;;;;;;4.15;1.23;;;26.60;85.30;;;;;;5069984;28;20047;-70
2021/08/25 06:10:37;;;;;;;1.88;1.20;;;26.40;84.90;;;;;;5069860;28;20049;-70
2021/08/25 06:13:41;;;;;;;1.75;0.95;;;24.10;87.10;;;;;;5070078;28;20620;-70
2021/08/25 06:16:45;;;;;;;2.58;0.95;;;24.30;88.50;;;;;;5069919;28;20036;-70
2021/08/25 06:19:49;;;;;;;1.25;1.00;;;25.10;87.10;;;;;;5069695;28;20043;-70
2021/08/25 06:22:56;;;;;;;2.40;1.10;;;25.60;84.90;;;;;;5069542;28;20044;-70
2021/08/25 06:26:00;;;;;;;3.72;1.23;;;25.70;86.10;;;;;;5069749;28;20045;-70
2021/08/25 06:29:06;;;;;;;4.25;1.17;;;26.60;83.80;;;;;;5069662;28;20054;-70
2021/08/25 06:32:10;;;;;;;3.67;1.10;;;26.90;83.10;;;;;;5069468;28;20048;-70
2021/08/25 06:35:14;;;;;;;6.15;1.20;;;27.20;82.30;;;;;;5069800;28;20044;-71
2021/08/25 06:38:18;;;;;;;2.70;0.98;;;27.90;81.80;;;;;;5069634;28;20041;-68
2021/08/25 06:41:23;;;;;;;2.95;1.13;;;29.10;78.60;;;;;;5069228;28;20485;-69
2021/08/25 06:44:27;;;;;;;5.18;1.40;;;29.10;77.50;;;;;;5069766;28;20394;-71
2021/08/25 06:47:32;;;;;;;1.63;0.80;;;28.70;76.50;;;;;;5069994;28;20036;-70
2021/08/25 06:50:36;;;;;;;2.97;1.17;;;27.60;79.00;;;;;;5069518;28;20037;-70
2021/08/25 06:53:40;;;;;;;4.07;1.00;;;28.60;77.70;;;;;;5069586;28;20044;-69
2021/08/25 06:56:44;;;;;;;1.95;0.93;;;29.90;75.40;;;;;;5069787;28;20044;-70
2021/08/25 06:59:48;;;;;;;3.95;0.90;;;30.90;73.60;;;;;;5069381;28;20506;-68
2021/08/25 07:02:52;;;;;;;1.60;1.00;;;31.70;72.50;;;;;;5069295;28;20032;-71
2021/08/25 07:05:56;;;;;;;4.40;1.13;;;32.40;71.00;;;;;;5069491;28;20368;-68
2021/08/25 07:09:01;;;;;;;3.08;0.98;;;33.10;70.30;;;;;;5069923;28;20051;-69
2021/08/25 07:12:08;;;;;;;4.18;1.30;;;33.00;67.80;;;;;;5069127;28;20394;-69
2021/08/25 07:15:16;;;;;;;3.80;1.23;;;33.30;68.70;;;;;;5069846;28;20075;-69
2021/08/25 07:18:20;;;;;;;5.18;1.15;;;33.90;68.30;;;;;;5057208;28;20048;-69
2021/08/25 07:21:24;;;;;;;4.70;1.30;;;34.00;66.50;;;;;;5069097;28;20037;-70
2021/08/25 07:24:28;;;;;;;4.05;1.08;;;35.20;66.40;;;;;;5071479;28;20504;-69
2021/08/25 07:27:32;;;;;;;1.85;1.02;;;33.80;65.90;;;;;;5073207;28;20040;-69
2021/08/25 07:30:36;;;;;;;2.70;1.05;;;34.00;65.90;;;;;;5073097;28;20043;-69
2021/08/25 07:33:42;;;;;;;4.80;0.90;;;31.60;67.70;;;;;;5072819;28;20053;-69
2021/08/25 07:36:45;;;;;;;4.38;1.10;;;31.00;70.00;;;;;;5060657;28;20041;-70
2021/08/25 07:39:49;;;;;;;4.90;1.25;;;30.10;70.30;;;;;;5053807;28;20040;-71
2021/08/25 07:42:54;;;;;;;7.70;1.05;;;29.80;72.60;;;;;;5052683;28;20037;-69
2021/08/25 07:45:58;;;;;;;3.53;1.10;;;29.40;71.50;;;;;;5053174;28;20046;-71
2021/08/25 07:49:03;;;;;;;2.08;0.98;;;28.10;74.80;;;;;;5072321;28;20489;-71
2021/08/25 07:52:07;;;;;;;3.58;1.13;;;29.20;74.90;;;;;;5072093;28;20049;-68
2021/08/25 07:55:11;;;;;;;7.43;1.52;;;28.90;74.40;;;;;;5072405;28;20501;-71
2021/08/25 07:58:15;;;;;;;2.08;0.90;;;29.30;73.60;;;;;;5071933;28;20037;-71
2021/08/25 08:01:19;;;;;;;1.45;0.90;;;29.40;73.90;;;;;;5059533;28;20043;-70
2021/08/25 08:04:24;;;;;;;2.72;0.90;;;32.20;71.10;;;;;;5071743;28;20129;-69
2021/08/25 08:07:29;;;;;;;1.52;0.93;;;34.40;67.20;;;;;;5072548;28;20049;-69
2021/08/25 08:10:33;;;;;;;5.20;1.02;;;33.00;67.60;;;;;;5071666;28;20044;-71
2021/08/25 08:13:37;;;;;;;2.60;0.70;;;31.40;67.10;;;;;;5071862;28;20048;-71
2021/08/25 08:16:45;;;;;;;2.47;1.10;;;33.50;65.90;;;;;;5071999;28;20044;-71
2021/08/25 08:19:50;;;;;;;1.63;1.00;;;33.10;66.10;;;;;;5072079;28;20040;-70
2021/08/25 08:22:54;;;;;;;1.73;1.10;;;31.20;68.20;;;;;;5071178;28;20040;-71
2021/08/25 08:25:58;;;;;;;4.10;1.00;;;32.60;67.50;;;;;;5071788;28;20037;-71
2021/08/25 08:29:03;;;;;;;2.97;1.02;;;34.30;65.70;;;;;;5071467;28;20371;-70
2021/08/25 08:32:10;;;;;;;3.53;1.05;;;34.50;64.60;;;;;;5071429;28;20494;-70
2021/08/25 08:35:15;;;;;;;3.47;1.10;;;37.00;62.20;;;;;;5071848;28;20051;-70
2021/08/25 08:38:19;;;;;;;2.40;0.75;;;37.30;60.70;;;;;;5071288;28;20115;-70
2021/08/25 08:41:23;;;;;;;4.20;1.00;;;38.50;59.80;;;;;;5071017;28;20503;-70
2021/08/25 08:44:27;;;;;;;1.98;0.90;;;38.70;59.00;;;;;;5071259;28;20048;-69
2021/08/25 08:47:32;;;;;;;3.80;1.00;;;34.70;62.00;;;;;;5071380;28;20044;-71
2021/08/25 08:50:36;;;;;;;4.50;1.10;;;34.00;63.70;;;;;;5071342;28;20052;-70
2021/08/25 08:53:41;;;;;;;5.35;0.93;;;35.70;62.60;;;;;;5071145;28;20037;-70
2021/08/25 08:56:45;;;;;;;2.03;0.88;;;37.50;60.60;;;;;;5071253;28;20049;-70
2021/08/25 08:59:50;;;;;;;3.45;1.00;;;38.90;58.50;;;;;;5071262;28;20044;-70
2021/08/25 09:02:55;;;;;;;4.63;1.10;;;37.50;58.60;;;;;;5070908;28;20033;-70
2021/08/25 09:06:01;;;;;;;3.33;0.95;;;39.50;57.40;;;;;;5063697;28;20044;-70
2021/08/25 09:09:05;;;;;;;6.78;1.10;;;40.10;56.40;;;;;;5051675;28;20738;-71
2021/08/25 09:12:12;;;;;;;3.08;1.10;;;40.40;56.40;;;;;;5051339;28;20407;-70
2021/08/25 09:15:21;;;;;;;4.00;0.80;;;37.40;59.10;;;;;;5067343;28;20044;-70
2021/08/25 09:18:25;;;;;;;4.40;1.52;;;39.30;57.00;;;;;;5071505;28;20044;-71
2021/08/25 09:21:32;;;;;;;1.75;0.93;;;39.60;55.50;;;;;;5070650;28;20655;-70
2021/08/25 09:24:40;;;;;;;4.22;1.00;;;40.80;54.90;;;;;;5071443;28;20036;-70
2021/08/25 09:27:51;;;;;;;1.83;0.80;;;40.50;55.60;;;;;;5071442;28;20044;-70
2021/08/25 09:30:59;;;;;;;3.50;1.17;;;35.60;57.30;;;;;;5067847;28;20459;-70
2021/08/25 09:34:04;;;;;;;2.65;1.13;;;38.60;57.30;;;;;;5067517;28;20039;-70
2021/08/25 09:37:09;;;;;;;2.95;0.90;;;39.20;55.70;;;;;;5070444;28;20035;-70
2021/08/25 09:40:16;;;;;;;3.67;1.30;;;41.40;54.40;;;;;;5070249;28;20046;-70
2021/08/25 09:43:36;;;;;;;3.33;0.93;;;43.00;53.60;;;;;;5070332;28;20032;-70
2021/08/25 09:46:50;;;;;;;5.03;1.00;;;44.90;51.30;;;;;;5069795;28;20040;-70
2021/08/25 09:50:06;;;;;;;4.15;1.10;;;43.70;51.00;;;;;;5070503;28;20055;-69
2021/08/25 09:53:19;;;;;;;3.67;1.08;;;42.00;51.30;;;;;;5070138;28;20396;-69
2021/08/25 09:56:34;;;;;;;3.13;1.10;;;39.90;52.90;;;;;;5070789;28;20232;-70
2021/08/25 09:59:38;;;;;;;4.88;1.13;;;37.90;54.50;;;;;;5070604;28;20048;-70
2021/08/25 10:02:43;;;;;;;3.55;1.10;;;36.40;55.60;;;;;;5070417;28;20047;-69
2021/08/25 10:05:57;;;;;;;3.83;1.00;;;35.00;56.80;;;;;;5070412;28;20028;-70
2021/08/25 10:09:03;;;;;;;3.65;1.00;;;34.50;57.70;;;;;;5070317;28;20040;-70
2021/08/25 10:12:08;;;;;;;1.58;0.90;;;34.20;57.80;;;;;;5069934;28;20394;-70
2021/08/25 10:15:30;;;;;;;5.25;1.30;;;33.90;58.10;;;;;;5070335;28;20394;-70
2021/08/25 10:18:39;;;;;;;2.03;0.95;;;33.90;58.00;;;;;;5070113;28;20047;-70
2021/08/25 10:21:44;;;;;;;1.63;1.00;;;33.40;58.40;;;;;;5069569;28;20360;-70
2021/08/25 10:24:53;;;;;;;3.05;1.55;;;32.90;59.20;;;;;;5069954;28;20035;-70
2021/08/25 10:28:06;;;;;;;2.38;1.60;;;32.90;59.40;;;;;;5069621;28;20052;-70
2021/08/25 10:31:11;;;;;;;9.52;1.52;;;32.70;59.80;;;;;;5069138;28;20041;-69
2021/08/25 10:34:28;;;;;;;2.72;1.00;;;32.50;59.80;;;;;;5069576;28;20037;-70
2021/08/25 10:37:32;;;;;;;2.38;1.27;;;32.60;59.50;;;;;;5069624;28;20500;-70
2021/08/25 10:40:37;;;;;;;4.82;1.05;;;32.90;59.60;;;;;;5069430;28;20145;-70
2021/08/25 10:43:43;;;;;;;2.45;1.17;;;33.30;59.30;;;;;;5069559;28;20502;-70
2021/08/25 10:46:48;;;;;;;2.28;1.00;;;33.20;58.90;;;;;;5069201;28;20041;-70
2021/08/25 10:50:09;;;;;;;1.95;0.80;;;33.40;58.80;;;;;;5069688;28;20051;-70
2021/08/25 10:53:28;;;;;;;4.50;1.10;;;35.30;57.10;;;;;;5069776;28;20074;-71
2021/08/25 10:56:46;;;;;;;6.53;0.75;;;38.60;54.30;;;;;;5069759;28;20049;-70
2021/08/25 10:59:52;;;;;;;1.52;0.73;;;42.00;52.10;;;;;;5072973;28;20039;-71
2021/08/25 11:02:57;;;;;;;1.42;0.82;;;44.60;50.00;;;;;;5060776;28;20032;-71
2021/08/25 11:06:01;;;;;;;1.85;1.00;;;46.20;48.50;;;;;;5060701;28;20043;-71
2021/08/25 11:09:21;;;;;;;4.55;0.93;;;45.40;47.70;;;;;;5073058;28;20044;-71
2021/08/25 11:12:25;;;;;;;1.95;1.05;;;45.00;47.80;;;;;;5072862;28;20045;-71
2021/08/25 11:15:32;;;;;;;3.35;1.20;;;41.90;49.80;;;;;;5073041;28;20037;-70
2021/08/25 11:18:36;;;;;;;1.73;1.10;;;40.30;51.30;;;;;;5072939;28;20039;-70
2021/08/25 11:21:41;;;;;;;3.22;1.20;;;38.40;52.30;;;;;;5048766;28;20037;-71
2021/08/25 11:25:07;;;;;;;2.35;1.20;;;37.60;53.40;;;;;;5072576;28;20039;-70
2021/08/25 11:28:14;;;;;;;5.50;1.30;;;37.30;54.20;;;;;;5061386;28;20123;-71
2021/08/25 11:31:26;;;;;;;4.50;0.98;;;39.80;52.90;;;;;;5072976;28;20044;-71
2021/08/25 11:34:30;;;;;;;2.22;1.02;;;42.90;50.40;;;;;;5073543;28;20041;-71
2021/08/25 11:37:34;;;;;;;3.03;1.00;;;44.30;49.10;;;;;;5072992;28;20045;-72
2021/08/25 11:40:44;;;;;;;3.15;0.98;;;45.00;48.40;;;;;;5073388;28;20044;-71
2021/08/25 11:43:48;;;;;;;0.98;0.77;;;44.90;47.50;;;;;;5073319;28;20074;-71
2021/08/25 11:47:09;;;;;;;3.08;0.80;;;42.80;48.80;;;;;;5073187;28;20040;-71
2021/08/25 11:50:14;;;;;;;;;;;40.40;50.00;;;;;;5068271;28;20047;-70
2021/08/25 11:53:25;;;;;;;3.00;0.93;;;37.70;52.20;;;;;;5073053;28;19915;-70
2021/08/25 11:56:30;;;;;;;2.40;1.05;;;36.30;53.70;;;;;;5072757;28;20386;-71
2021/08/25 11:59:34;;;;;;;4.03;1.10;;;35.60;54.30;;;;;;5074059;28;20055;-70
2021/08/25 12:03:01;;;;;;;15.93;1.73;;;34.70;55.20;;;;;;5072399;28;20032;-70
2021/08/25 12:06:05;;;;;;;4.80;1.30;;;34.60;56.30;;;;;;5072540;28;20036;-71
2021/08/25 12:09:09;;;;;;;1.75;1.13;;;35.80;55.30;;;;;;5059517;28;20044;-70
2021/08/25 12:12:14;;;;;;;4.07;1.48;;;35.80;55.10;;;;;;5072429;28;20045;-71
2021/08/25 12:15:18;;;;;;;2.08;0.85;;;36.70;54.60;;;;;;5072056;28;20059;-71
2021/08/25 12:18:25;;;;;;;3.88;1.30;;;36.30;54.60;;;;;;5071828;28;20052;-69
2021/08/25 12:21:32;;;;;;;4.03;1.48;;;32.60;58.20;;;;;;5071889;28;20032;-70
2021/08/25 12:24:44;;;;;;;3.22;1.20;;;34.20;58.00;;;;;;5072054;28;20040;-70
2021/08/25 12:27:48;;;;;;;2.58;1.10;;;33.60;57.00;;;;;;5071814;28;20471;-70
2021/08/25 12:30:52;;;;;;;4.13;1.38;;;33.30;56.90;;;;;;5071605;28;20414;-71
2021/08/25 12:34:11;;;;;;;2.10;1.13;;;34.60;54.80;;;;;;5071497;28;20040;-70
2021/08/25 12:37:16;;;;;;;5.15;1.10;;;38.80;53.20;;;;;;5059444;28;20033;-70
2021/08/25 12:40:22;;;;;;;3.95;1.10;;;39.20;52.10;;;;;;5071781;28;20039;-70
2021/08/25 12:43:27;;;;;;;1.83;1.05;;;39.70;52.10;;;;;;5071512;28;20041;-70
2021/08/25 12:46:47;;;;;;;2.38;1.02;;;41.40;50.20;;;;;;5071581;28;20521;-71
2021/08/25 12:49:51;;;;;;;;;;;41.70;50.20;;;;;;5072173;28;20043;-71
2021/08/25 12:52:55;;;;;;;1.85;0.85;;;41.70;49.20;;;;;;5071172;28;19915;-70
2021/08/25 12:55:59;;;;;;;3.67;0.95;;;41.40;49.50;;;;;;5071242;28;20036;-71
2021/08/25 12:59:03;;;;;;;3.60;0.90;;;39.70;50.80;;;;;;5071290;28;20048;-71
2021/08/25 13:02:08;;;;;;;2.95;1.00;;;37.50;52.80;;;;;;5071097;28;20047;-71
2021/08/25 13:05:13;;;;;;;1.70;0.90;;;36.70;53.80;;;;;;5071264;28;20043;-70
2021/08/25 13:08:18;;;;;;;10.48;1.88;;;36.10;54.30;;;;;;5071675;28;20045;-71
2021/08/25 13:11:23;;;;;;;3.45;1.25;;;35.80;54.90;;;;;;5070638;28;20048;-71
2021/08/25 13:14:27;;;;;;;2.58;0.93;;;35.10;55.00;;;;;;5071558;28;20040;-70
2021/08/25 13:17:32;;;;;;;2.10;1.10;;;35.10;55.30;;;;;;5071293;28;20059;-71
2021/08/25 13:20:38;;;;;;;3.85;1.05;;;34.80;55.20;;;;;;5070843;28;20044;-71
2021/08/25 13:23:44;;;;;;;4.38;1.13;;;34.80;55.90;;;;;;5070844;28;20035;-70
2021/08/25 13:26:48;;;;;;;1.77;1.10;;;34.90;55.70;;;;;;5070752;28;20395;-70
2021/08/25 13:29:53;;;;;;;3.75;1.10;;;34.90;55.90;;;;;;5071067;28;20032;-70
2021/08/25 13:32:57;;;;;;;2.25;1.05;;;34.80;56.20;;;;;;5070679;28;20052;-70
2021/08/25 13:36:01;;;;;;;1.70;0.80;;;34.70;56.20;;;;;;5070585;28;20055;-71
2021/08/25 13:39:05;;;;;;;2.40;1.10;;;34.50;56.40;;;;;;5070755;28;20044;-70
2021/08/25 13:42:09;;;;;;;1.98;1.20;;;34.80;56.70;;;;;;5070262;28;20422;-68
2021/08/25 13:45:14;;;;;;;3.97;1.33;;;34.70;57.00;;;;;;5070742;28;20044;-69
2021/08/25 13:48:18;;;;;;;2.95;1.30;;;34.70;57.10;;;;;;5070738;28;20471;-70
2021/08/25 13:51:23;;;;;;;5.68;1.20;;;35.00;56.90;;;;;;5070506;28;20036;-70
2021/08/25 13:54:27;;;;;;;3.20;1.10;;;35.90;55.80;;;;;;5058014;28;20044;-69
2021/08/25 13:57:32;;;;;;;2.30;1.17;;;36.50;54.90;;;;;;5070488;28;20039;-70
2021/08/25 14:00:36;;;;;;;2.92;1.20;;;36.60;54.80;;;;;;5070430;28;20032;-72
2021/08/25 14:03:41;;;;;;;2.92;1.20;;;36.00;54.80;;;;;;5070176;28;20415;-71
2021/08/25 14:06:45;;;;;;;1.90;1.10;;;36.10;55.20;;;;;;5070179;28;20035;-70
2021/08/25 14:09:49;;;;;;;4.00;1.10;;;36.10;55.20;;;;;;5070141;28;20045;-69
2021/08/25 14:12:53;;;;;;;3.15;1.10;;;35.60;55.30;;;;;;5069922;28;20048;-69
2021/08/25 14:15:57;;;;;;;3.80;1.30;;;35.70;55.70;;;;;;5070019;28;20045;-72
2021/08/25 14:19:02;;;;;;;5.38;1.25;;;35.50;56.10;;;;;;5069968;28;20036;-72
2021/08/25 14:22:07;;;;;;;3.80;0.90;;;34.20;57.00;;;;;;5069848;28;20372;-71
2021/08/25 14:25:11;;;;;;;6.05;1.38;;;32.20;59.40;;;;;;5070145;28;20037;-72
2021/08/25 14:28:15;;;;;;;4.78;1.35;;;32.40;59.00;;;;;;5070139;28;20499;-71
2021/08/25 14:31:19;;;;;;;2.92;1.30;;;31.50;60.20;;;;;;5069791;28;20036;-71
2021/08/25 14:34:23;;;;;;;2.65;1.10;;;32.00;59.80;;;;;;5074007;28;20498;-72
2021/08/25 14:37:28;;;;;;;4.70;1.20;;;32.60;59.70;;;;;;5074016;28;20052;-71
2021/08/25 14:40:32;;;;;;;2.85;1.17;;;32.40;60.30;;;;;;5074063;28;20482;-71
2021/08/25 14:43:36;;;;;;;15.75;1.70;;;32.60;60.50;;;;;;5073848;28;20429;-71
2021/08/25 14:46:41;;;;;;;10.18;1.80;;;32.40;61.30;;;;;;5074147;28;20039;-72
2021/08/25 14:49:47;;;;;;;2.50;1.42;;;31.70;62.00;;;;;;5050549;28;20051;-71
2021/08/25 14:52:51;;;;;;;3.70;1.48;;;31.50;62.40;;;;;;5073527;28;20040;-71
2021/08/25 14:55:57;;;;;;;5.72;1.48;;;31.30;62.80;;;;;;5073778;28;20533;-71
2021/08/25 14:59:01;;;;;;;3.03;1.52;;;31.20;62.70;;;;;;5073434;28;20039;-71
2021/08/25 15:02:07;;;;;;;3.03;1.30;;;31.60;62.20;;;;;;5073620;28;20044;-71
2021/08/25 15:05:12;;;;;;;5.28;1.35;;;31.60;62.10;;;;;;5073778;28;20028;-71
2021/08/25 15:08:17;;;;;;;4.97;1.10;;;31.60;61.20;;;;;;5073358;28;20036;-71
2021/08/25 15:11:21;;;;;;;3.22;1.40;;;31.60;61.70;;;;;;5073164;28;20032;-72
2021/08/25 15:14:27;;;;;;;6.70;1.60;;;31.20;61.60;;;;;;5073226;28;20360;-71
2021/08/25 15:17:32;;;;;;;1.67;1.20;;;30.50;62.60;;;;;;5073030;28;20497;-72
2021/08/25 15:20:36;;;;;;;3.70;1.35;;;30.70;62.60;;;;;;5073370;28;20044;-72
2021/08/25 15:23:41;;;;;;;5.15;1.63;;;31.60;61.80;;;;;;5073467;28;20036;-71
2021/08/25 15:26:46;;;;;;;6.22;1.60;;;31.90;61.20;;;;;;5060951;28;20029;-71
2021/08/25 15:29:52;;;;;;;2.70;1.15;;;31.90;61.40;;;;;;5073889;28;20044;-71
2021/08/25 15:32:56;;;;;;;4.55;1.83;;;31.60;62.20;;;;;;5072969;28;20071;-70
2021/08/25 15:36:01;;;;;;;11.13;1.65;;;31.40;62.70;;;;;;5073799;28;20063;-72
2021/08/25 15:39:08;;;;;;;4.13;1.27;;;31.30;62.30;;;;;;5072664;28;20040;-70
2021/08/25 15:42:12;;;;;;;3.53;1.50;;;31.30;62.40;;;;;;5060611;28;20036;-71
2021/08/25 15:45:16;;;;;;;2.42;1.35;;;31.10;62.30;;;;;;5072468;28;20033;-71
2021/08/25 15:48:20;;;;;;;3.28;1.20;;;30.90;62.40;;;;;;5072783;28;20041;-70
2021/08/25 15:51:25;;;;;;;3.65;1.42;;;30.70;62.90;;;;;;5072451;28;20036;-71
2021/08/25 15:54:30;;;;;;;7.43;1.85;;;30.20;64.30;;;;;;5072656;28;20037;-71
2021/08/25 15:57:36;;;;;;;7.00;1.80;;;29.90;65.10;;;;;;5072929;28;20043;-71
2021/08/25 16:00:41;;;;;;;7.70;1.70;;;29.80;65.70;;;;;;5072593;28;20507;-70
2021/08/25 16:03:45;;;;;;;5.10;1.52;;;29.60;66.00;;;;;;5072528;28;20386;-70
2021/08/25 16:06:50;;;;;;;6.15;1.40;;;29.50;65.50;;;;;;5072460;28;20037;-71